createdAt,value
2019-01-04T00:00:40.692Z,81.42
2019-01-04T00:03:09.576Z,79.74
2019-01-04T00:05:38.516Z,81.28
2019-01-04T00:08:07.410Z,81.38
2019-01-04T00:10:36.300Z,81.00
2019-01-04T00:13:05.155Z,81.02
2019-01-04T00:15:34.051Z,80.50
2019-01-04T00:18:02.961Z,80.70
2019-01-04T00:20:31.845Z,81.08
2019-01-04T00:23:00.711Z,81.49
2019-01-04T00:25:29.615Z,81.99
2019-01-04T00:27:58.507Z,82.43
2019-01-04T00:30:27.410Z,82.21
2019-01-04T00:32:56.295Z,81.81
2019-01-04T00:35:25.180Z,81.74
2019-01-04T00:37:54.083Z,81.50
2019-01-04T00:40:22.973Z,81.59
2019-01-04T00:42:51.871Z,81.74
2019-01-04T00:45:20.732Z,81.22
2019-01-04T00:47:49.620Z,81.64
2019-01-04T00:50:18.510Z,82.33
2019-01-04T00:52:47.400Z,82.88
2019-01-04T00:55:43.097Z,82.59
2019-01-04T00:59:14.684Z,82.74
2019-01-04T01:02:08.800Z,82.88
2019-01-04T01:05:27.589Z,82.67
2019-01-04T01:08:47.198Z,82.57
2019-01-04T01:11:50.708Z,82.62
2019-01-04T01:15:04.988Z,82.47
2019-01-04T01:17:57.521Z,82.40
2019-01-04T01:20:58.966Z,82.67
2019-01-04T01:24:01.640Z,82.90
2019-01-04T01:26:59.193Z,83.38
2019-01-04T01:29:53.384Z,82.96
2019-01-04T01:33:07.887Z,83.05
2019-01-04T01:35:59.520Z,83.18
2019-01-04T01:39:16.087Z,83.07
2019-01-04T01:42:32.479Z,83.43
2019-01-04T01:45:39.887Z,83.51
2019-01-04T01:48:30.803Z,83.37
2019-01-04T01:51:28.456Z,83.13
2019-01-04T01:53:57.357Z,82.81
2019-01-04T01:56:26.255Z,82.78
2019-01-04T01:58:55.148Z,82.83
2019-01-04T02:01:24.029Z,82.86
2019-01-04T02:03:53.118Z,83.33
2019-01-04T02:06:22.038Z,83.53
2019-01-04T02:08:50.909Z,83.94
2019-01-04T02:11:19.824Z,83.68
2019-01-04T02:13:48.755Z,83.61
2019-01-04T02:16:17.603Z,83.35
2019-01-04T02:18:46.517Z,83.69
2019-01-04T02:21:15.386Z,83.64
2019-01-04T02:23:44.265Z,83.90
2019-01-04T02:26:13.139Z,84.04
2019-01-04T02:28:42.054Z,83.73
2019-01-04T02:31:10.927Z,83.77
2019-01-04T02:33:39.808Z,83.87
2019-01-04T02:36:08.742Z,83.86
2019-01-04T02:38:37.618Z,83.98
2019-01-04T02:41:06.549Z,83.84
2019-01-04T02:43:35.423Z,83.83
2019-01-04T02:46:04.362Z,84.21
2019-01-04T02:48:33.221Z,83.70
2019-01-04T02:51:02.122Z,83.61
2019-01-04T02:53:31.021Z,83.20
2019-01-04T02:55:59.918Z,81.75
2019-01-04T02:58:28.816Z,82.83
2019-01-04T03:00:57.690Z,82.85
2019-01-04T03:03:26.589Z,82.86
2019-01-04T03:05:55.471Z,83.04
2019-01-04T03:08:24.378Z,83.10
2019-01-04T03:10:53.271Z,83.02
2019-01-04T03:13:22.178Z,82.75
2019-01-04T03:15:51.048Z,82.79
2019-01-04T03:18:19.932Z,82.76
2019-01-04T03:20:48.824Z,82.73
2019-01-04T03:23:17.712Z,82.60
2019-01-04T03:25:46.612Z,82.45
2019-01-04T03:28:15.508Z,82.63
2019-01-04T03:30:44.400Z,83.16
2019-01-04T03:33:13.287Z,83.24
2019-01-04T03:35:42.169Z,81.71
2019-01-04T03:38:11.055Z,82.93
2019-01-04T03:40:39.950Z,83.64
2019-01-04T03:43:08.846Z,83.71
2019-01-04T03:45:37.744Z,84.01
2019-01-04T03:48:06.641Z,84.23
2019-01-04T03:50:35.544Z,84.38
2019-01-04T03:53:04.442Z,84.53
2019-01-04T03:55:33.325Z,84.70
2019-01-04T03:58:02.222Z,84.79
2019-01-04T04:00:31.126Z,85.11
2019-01-04T04:03:00.011Z,84.99
2019-01-04T04:05:28.898Z,85.07
2019-01-04T04:07:57.764Z,85.15
2019-01-04T04:10:26.632Z,85.32
2019-01-04T04:12:55.519Z,85.30
2019-01-04T04:15:24.399Z,85.11
2019-01-04T04:17:53.290Z,85.08
2019-01-04T04:20:22.188Z,85.49
2019-01-04T04:22:51.066Z,85.50
2019-01-04T04:25:19.978Z,85.81
2019-01-04T04:27:48.881Z,86.12
2019-01-04T04:30:17.746Z,85.91
2019-01-04T04:32:46.642Z,86.11
2019-01-04T04:35:15.484Z,84.80
2019-01-04T04:37:44.388Z,85.77
2019-01-04T04:40:13.264Z,85.00
2019-01-04T04:42:42.199Z,86.08
2019-01-04T04:45:11.071Z,86.27
2019-01-04T04:47:39.988Z,85.00
2019-01-04T04:50:08.900Z,86.05
2019-01-04T04:52:37.781Z,86.34
2019-01-04T04:55:06.750Z,86.42
2019-01-04T04:57:35.640Z,86.52
2019-01-04T05:00:05.285Z,86.43
2019-01-04T05:02:34.168Z,86.43
2019-01-04T05:05:03.081Z,86.57
2019-01-04T05:07:32.034Z,86.24
2019-01-04T05:10:00.927Z,86.43
2019-01-04T05:12:29.803Z,86.55
2019-01-04T05:14:58.723Z,86.68
2019-01-04T05:17:27.606Z,85.71
2019-01-04T05:19:56.515Z,86.54
2019-01-04T05:22:25.525Z,86.19
2019-01-04T05:24:54.433Z,86.16
2019-01-04T05:27:23.295Z,86.02
2019-01-04T05:29:52.173Z,85.81
2019-01-04T05:32:21.048Z,85.59
2019-01-04T05:34:49.954Z,85.72
2019-01-04T05:37:18.839Z,85.85
2019-01-04T05:39:47.719Z,85.90
2019-01-04T05:42:16.619Z,85.86
2019-01-04T05:44:45.500Z,85.88
2019-01-04T05:47:14.406Z,86.06
2019-01-04T05:49:43.280Z,86.10
2019-01-04T05:52:12.179Z,86.03
2019-01-04T05:54:41.066Z,86.06
2019-01-04T05:57:10.015Z,86.45
2019-01-04T05:59:38.905Z,85.85
2019-01-04T06:02:07.798Z,86.43
2019-01-04T06:04:36.674Z,86.87
2019-01-04T06:07:05.651Z,86.98
2019-01-04T06:09:34.551Z,87.01
2019-01-04T06:12:03.434Z,87.07
2019-01-04T06:14:32.336Z,86.68
2019-01-04T06:17:01.216Z,86.96
2019-01-04T06:19:30.136Z,87.09
2019-01-04T06:21:59.031Z,86.91
2019-01-04T06:24:27.934Z,87.01
2019-01-04T06:26:56.852Z,87.30
2019-01-04T06:29:25.761Z,87.11
2019-01-04T06:31:54.645Z,86.02
2019-01-04T06:34:23.541Z,86.67
2019-01-04T06:36:52.465Z,86.91
2019-01-04T06:39:21.342Z,87.03
2019-01-04T06:41:50.276Z,87.07
2019-01-04T06:44:19.182Z,87.15
2019-01-04T06:47:14.318Z,87.02
2019-01-04T06:49:43.205Z,86.94
2019-01-04T06:52:12.143Z,87.02
2019-01-04T06:55:38.817Z,86.91
2019-01-04T06:58:07.928Z,86.94
2019-01-04T07:00:36.754Z,85.42
2019-01-04T07:03:05.667Z,86.16
2019-01-04T07:05:34.580Z,86.40
2019-01-04T07:08:03.523Z,86.47
2019-01-04T07:10:32.430Z,86.24
2019-01-04T07:13:01.324Z,86.26
2019-01-04T07:15:30.209Z,86.38
2019-01-04T07:17:59.075Z,86.53
2019-01-04T07:20:27.991Z,86.41
2019-01-04T07:22:56.877Z,86.49
2019-01-04T07:25:25.809Z,86.54
2019-01-04T07:27:54.702Z,86.33
2019-01-04T07:30:23.564Z,86.29
2019-01-04T07:32:52.472Z,86.60
2019-01-04T07:35:21.363Z,86.75
2019-01-04T07:37:50.254Z,86.48
2019-01-04T07:40:19.146Z,86.89
2019-01-04T07:42:48.060Z,86.43
2019-01-04T07:45:16.989Z,86.46
2019-01-04T07:47:45.933Z,86.50
2019-01-04T07:50:14.812Z,86.47
2019-01-04T07:52:43.782Z,86.08
2019-01-04T07:55:13.090Z,85.77
2019-01-04T07:57:41.992Z,85.90
2019-01-04T08:00:15.225Z,86.07
2019-01-04T08:02:45.729Z,85.96
2019-01-04T08:05:17.188Z,85.91
2019-01-04T08:07:46.132Z,85.87
2019-01-04T08:10:15.033Z,86.14
2019-01-04T08:12:43.954Z,86.16
2019-01-04T08:15:12.874Z,86.22
2019-01-04T08:17:41.801Z,86.06
2019-01-04T08:20:11.138Z,85.94
2019-01-04T08:22:40.067Z,86.12
2019-01-04T08:25:09.627Z,86.31
2019-01-04T08:27:38.717Z,86.35
2019-01-04T08:30:12.948Z,86.58
2019-01-04T08:32:41.857Z,86.59
2019-01-04T08:35:10.789Z,86.74
2019-01-04T08:37:39.709Z,86.79
2019-01-04T08:40:12.200Z,86.84
2019-01-04T08:42:41.108Z,87.05
2019-01-04T08:45:13.881Z,86.83
2019-01-04T08:47:42.885Z,86.91
2019-01-04T08:50:12.802Z,86.99
2019-01-04T08:52:41.717Z,86.87
2019-01-04T08:55:17.750Z,86.78
2019-01-04T08:57:46.636Z,86.49
2019-01-04T09:00:15.611Z,86.37
2019-01-04T09:02:44.583Z,86.50
2019-01-04T09:05:13.489Z,86.61
2019-01-04T09:07:42.404Z,86.63
2019-01-04T09:10:11.341Z,86.54
2019-01-04T09:12:40.200Z,86.79
2019-01-04T09:15:10.395Z,87.12
2019-01-04T09:17:39.352Z,86.76
2019-01-04T09:20:10.219Z,86.81
2019-01-04T09:22:39.353Z,86.94
2019-01-04T09:25:09.653Z,87.23
2019-01-04T09:27:38.935Z,86.88
2019-01-04T09:30:10.395Z,86.77
2019-01-04T09:32:39.333Z,86.65
2019-01-04T09:35:08.498Z,86.75
2019-01-04T09:37:37.393Z,86.88
2019-01-04T09:40:08.755Z,87.29
2019-01-04T09:42:37.629Z,87.19
2019-01-04T09:45:07.871Z,87.15
2019-01-04T09:47:36.880Z,86.98
2019-01-04T09:50:06.460Z,86.85
2019-01-04T09:52:35.347Z,87.08
2019-01-04T09:55:04.497Z,86.83
2019-01-04T09:57:33.421Z,86.58
2019-01-04T10:00:02.369Z,86.52
2019-01-04T10:02:33.575Z,86.90
2019-01-04T10:05:08.796Z,86.80
2019-01-04T10:07:41.596Z,86.59
2019-01-04T10:10:14.928Z,86.63
2019-01-04T10:12:51.786Z,86.55
2019-01-04T10:15:29.162Z,86.38
2019-01-04T10:17:56.681Z,86.20
2019-01-04T10:20:28.257Z,86.45
2019-01-04T10:23:00.669Z,86.61
2019-01-04T10:25:30.167Z,86.65
2019-01-04T10:28:03.040Z,86.53
2019-01-04T10:30:32.489Z,86.57
2019-01-04T10:33:12.933Z,86.52
2019-01-04T10:35:42.496Z,86.60
2019-01-04T10:39:07.845Z,86.69
2019-01-04T10:41:47.099Z,86.68
2019-01-04T10:44:22.759Z,86.70
2019-01-04T10:46:54.130Z,86.71
2019-01-04T10:49:27.103Z,87.06
2019-01-04T10:52:02.322Z,86.55
2019-01-04T10:54:34.677Z,86.38
2019-01-04T10:57:05.155Z,86.25
2019-01-04T10:59:37.251Z,84.95
2019-01-04T11:02:11.468Z,85.53
2019-01-04T11:04:41.369Z,85.78
2019-01-04T11:07:10.754Z,85.74
2019-01-04T11:09:42.318Z,85.49
2019-01-04T11:12:13.007Z,85.38
2019-01-04T11:14:45.197Z,85.34
2019-01-04T11:17:14.574Z,85.17
2019-01-04T11:19:43.856Z,84.91
2019-01-04T11:22:49.665Z,83.88
2019-01-04T11:26:02.672Z,84.65
2019-01-04T11:28:49.738Z,84.88
2019-01-04T11:31:41.750Z,84.76
2019-01-04T11:34:32.630Z,85.10
2019-01-04T11:37:43.843Z,84.93
2019-01-04T11:40:49.709Z,84.90
2019-01-04T11:44:05.691Z,83.93
2019-01-04T11:46:52.397Z,84.75
2019-01-04T11:50:05.668Z,84.76
2019-01-04T11:52:42.263Z,84.64
2019-01-04T11:55:18.390Z,84.33
2019-01-04T11:57:46.150Z,84.57
2019-01-04T12:00:15.955Z,84.32
2019-01-04T12:02:45.445Z,84.30
2019-01-04T12:05:15.925Z,84.39
2019-01-04T12:07:49.161Z,84.44
2019-01-04T12:10:20.975Z,84.61
2019-01-04T12:12:55.215Z,84.93
2019-01-04T12:15:27.920Z,84.95
2019-01-04T12:17:59.749Z,85.00
2019-01-04T12:20:31.855Z,85.10
2019-01-04T12:23:01.518Z,85.04
2019-01-04T12:25:36.919Z,84.99
2019-01-04T12:28:06.353Z,85.15
2019-01-04T12:30:39.154Z,85.03
2019-01-04T12:33:08.525Z,84.96
2019-01-04T12:35:37.860Z,84.64
2019-01-04T12:38:07.429Z,84.62
2019-01-04T12:40:42.174Z,84.50
2019-01-04T12:43:11.714Z,84.45
2019-01-04T12:45:41.203Z,84.46
2019-01-04T12:48:15.215Z,84.19
2019-01-04T12:50:44.504Z,84.29
2019-01-04T12:53:13.432Z,84.18
2019-01-04T12:55:42.347Z,84.27
2019-01-04T12:58:11.226Z,82.44
2019-01-04T13:00:40.141Z,83.18
2019-01-04T13:03:09.251Z,83.33
2019-01-04T13:05:38.167Z,83.27
2019-01-04T13:08:07.125Z,83.33
2019-01-04T13:10:35.964Z,83.50
2019-01-04T13:13:04.917Z,83.22
2019-01-04T13:15:33.798Z,81.36
2019-01-04T13:18:02.723Z,82.30
2019-01-04T13:20:31.665Z,82.41
2019-01-04T13:23:00.598Z,82.43
2019-01-04T13:25:29.547Z,82.67
2019-01-04T13:27:58.461Z,82.32
2019-01-04T13:30:27.372Z,82.11
2019-01-04T13:32:56.326Z,82.65
2019-01-04T13:35:25.203Z,82.73
2019-01-04T13:37:54.142Z,82.88
2019-01-04T13:40:23.035Z,82.70
2019-01-04T13:42:51.928Z,82.44
2019-01-04T13:45:20.831Z,82.19
2019-01-04T13:47:49.759Z,82.46
2019-01-04T13:50:18.642Z,82.43
2019-01-04T13:52:47.619Z,82.13
2019-01-04T13:55:16.521Z,82.25
2019-01-04T13:57:45.420Z,80.85
2019-01-04T14:00:14.346Z,79.23
2019-01-04T14:02:43.735Z,78.96
2019-01-04T14:05:17.885Z,80.38
2019-01-04T14:07:42.681Z,80.77
2019-01-04T14:10:13.917Z,80.64
2019-01-04T14:12:45.270Z,80.67
2019-01-04T14:15:14.078Z,80.79
2019-01-04T14:17:43.704Z,80.73
2019-01-04T14:20:14.206Z,80.46
2019-01-04T14:22:51.359Z,80.83
2019-01-04T14:25:22.783Z,80.91
2019-01-04T14:27:57.469Z,81.07
2019-01-04T14:30:30.192Z,81.29
2019-01-04T14:33:07.079Z,81.18
2019-01-04T14:35:52.714Z,81.11
2019-01-04T14:38:23.874Z,81.66
2019-01-04T14:40:53.333Z,81.74
2019-01-04T14:43:30.139Z,81.83
2019-01-04T14:46:02.008Z,81.89
2019-01-04T14:48:33.842Z,81.82
2019-01-04T14:51:03.105Z,82.00
2019-01-04T14:53:34.978Z,81.99
2019-01-04T14:56:05.684Z,80.60
2019-01-04T14:58:40.496Z,81.57
2019-01-04T15:01:09.925Z,81.76
2019-01-04T15:03:42.277Z,81.60
2019-01-04T15:06:15.454Z,81.60
2019-01-04T15:08:45.161Z,81.68
2019-01-04T15:11:14.631Z,81.82
2019-01-04T15:13:43.972Z,81.62
2019-01-04T15:16:13.396Z,82.09
2019-01-04T15:18:42.778Z,82.01
2019-01-04T15:21:13.097Z,82.11
2019-01-04T15:23:41.848Z,82.83
2019-01-04T15:26:10.881Z,82.67
2019-01-04T15:28:39.816Z,82.57
2019-01-04T15:31:08.827Z,82.92
2019-01-04T15:33:37.787Z,82.99
2019-01-04T15:36:06.717Z,82.91
2019-01-04T15:38:36.290Z,82.40
2019-01-04T15:41:04.609Z,82.94
2019-01-04T15:43:33.457Z,82.20
2019-01-04T15:46:02.374Z,83.06
2019-01-04T15:48:31.414Z,82.83
2019-01-04T15:51:00.302Z,82.92
2019-01-04T15:53:29.218Z,83.10
2019-01-04T15:55:58.140Z,83.16
2019-01-04T15:58:27.052Z,82.89
2019-01-04T16:00:56.008Z,82.87
2019-01-04T16:03:24.897Z,82.79
2019-01-04T16:05:53.779Z,82.76
2019-01-04T16:08:22.703Z,82.78
2019-01-04T16:10:51.637Z,82.94
2019-01-04T16:13:20.591Z,82.88
2019-01-04T16:15:49.476Z,83.16
2019-01-04T16:18:18.404Z,82.73
2019-01-04T16:20:47.330Z,82.93
2019-01-04T16:23:16.245Z,83.04
2019-01-04T16:25:45.124Z,82.31
2019-01-04T16:28:14.078Z,83.17
2019-01-04T16:30:42.981Z,83.10
2019-01-04T16:33:12.787Z,83.30
2019-01-04T16:35:40.880Z,82.32
2019-01-04T16:38:09.774Z,83.58
2019-01-04T16:40:38.694Z,83.80
2019-01-04T16:43:07.600Z,84.00
2019-01-04T16:45:36.494Z,84.09
2019-01-04T16:48:05.450Z,84.25
2019-01-04T16:50:34.377Z,84.17
2019-01-04T16:53:03.309Z,84.11
2019-01-04T16:55:32.211Z,84.22
2019-01-04T16:58:01.116Z,83.20
2019-01-04T17:00:30.030Z,84.14
2019-01-04T17:02:59.046Z,84.21
2019-01-04T17:05:28.042Z,83.82
2019-01-04T17:07:57.135Z,84.21
2019-01-04T17:10:26.167Z,84.57
2019-01-04T17:12:55.303Z,84.83
2019-01-04T17:15:24.205Z,85.12
2019-01-04T17:17:53.115Z,84.79
2019-01-04T17:20:55.799Z,84.66
2019-01-04T17:23:30.701Z,85.26
2019-01-04T17:26:01.063Z,85.14
2019-01-04T17:28:30.741Z,85.38
2019-01-04T17:31:00.155Z,85.72
2019-01-04T17:33:34.604Z,85.63
2019-01-04T17:36:11.402Z,85.58
2019-01-04T17:38:40.919Z,85.51
2019-01-04T17:41:14.596Z,85.32
2019-01-04T17:43:44.328Z,85.94
2019-01-04T17:46:13.915Z,86.15
2019-01-04T17:48:46.756Z,86.43
2019-01-04T17:51:16.031Z,85.94
2019-01-04T17:53:47.791Z,85.95
2019-01-04T17:56:17.645Z,86.03
2019-01-04T17:58:49.628Z,84.82
2019-01-04T18:01:22.058Z,85.90
2019-01-04T18:03:54.277Z,85.77
2019-01-04T18:07:01.165Z,85.69
2019-01-04T18:09:36.428Z,85.58
2019-01-04T18:12:06.075Z,85.86
2019-01-04T18:14:39.025Z,86.09
2019-01-04T18:17:09.988Z,86.00
2019-01-04T18:19:39.594Z,85.99
2019-01-04T18:22:11.973Z,86.24
2019-01-04T18:24:38.803Z,86.18
2019-01-04T18:27:10.967Z,86.27
2019-01-04T18:29:44.486Z,86.16
2019-01-04T18:32:13.841Z,85.66
2019-01-04T18:34:43.730Z,85.80
2019-01-04T18:37:13.387Z,85.74
2019-01-04T18:39:46.086Z,85.88
2019-01-04T18:42:15.603Z,85.88
2019-01-04T18:44:46.822Z,86.00
2019-01-04T18:47:16.622Z,86.15
2019-01-04T18:49:45.972Z,86.20
2019-01-04T18:52:15.332Z,86.21
2019-01-04T18:54:47.547Z,86.01
2019-01-04T18:57:16.408Z,85.99
2019-01-04T18:59:45.394Z,86.04
2019-01-04T19:02:14.275Z,86.30
2019-01-04T19:04:43.194Z,86.02
2019-01-04T19:07:12.085Z,86.33
2019-01-04T19:09:40.988Z,86.28
2019-01-04T19:12:09.900Z,86.25
2019-01-04T19:14:39.815Z,86.08
2019-01-04T19:17:08.783Z,86.17
2019-01-04T19:19:37.663Z,86.19
2019-01-04T19:22:06.610Z,86.48
2019-01-04T19:24:35.517Z,86.28
2019-01-04T19:27:04.523Z,86.47
2019-01-04T19:29:33.430Z,86.70
2019-01-04T19:32:02.386Z,86.90
2019-01-04T19:34:31.367Z,86.90
2019-01-04T19:37:00.233Z,86.93
2019-01-04T19:39:29.178Z,87.04
2019-01-04T19:41:58.092Z,87.10
2019-01-04T19:44:27.084Z,87.10
2019-01-04T19:46:55.999Z,86.94
2019-01-04T19:49:25.838Z,87.16
2019-01-04T19:51:54.783Z,87.11
2019-01-04T19:54:23.686Z,86.98
2019-01-04T19:56:52.610Z,85.86
2019-01-04T19:59:21.541Z,86.72
2019-01-04T20:01:50.540Z,86.61
2019-01-04T20:04:19.499Z,86.95
2019-01-04T20:07:45.830Z,86.54
2019-01-04T20:11:25.189Z,86.55
2019-01-04T20:15:07.515Z,86.67
2019-01-04T20:18:05.233Z,86.90
2019-01-04T20:20:56.696Z,86.66
2019-01-04T20:23:46.699Z,86.61
2019-01-04T20:26:39.405Z,86.60
2019-01-04T20:29:27.587Z,86.65
2019-01-04T20:32:14.311Z,85.02
2019-01-04T20:35:00.815Z,86.11
2019-01-04T20:38:01.156Z,86.32
2019-01-04T20:40:47.918Z,86.26
2019-01-04T20:43:38.618Z,86.41
2019-01-04T20:46:41.722Z,86.62
2019-01-04T20:49:38.418Z,85.94
2019-01-04T20:52:26.470Z,86.30
2019-01-04T20:55:18.118Z,86.32
2019-01-04T20:58:16.386Z,86.12
2019-01-04T21:01:03.046Z,86.16
2019-01-04T21:03:45.290Z,86.09
2019-01-04T21:06:32.515Z,85.77
2019-01-04T21:09:37.637Z,86.23
2019-01-04T21:12:24.269Z,86.07
2019-01-04T21:15:18.530Z,86.31
2019-01-04T21:18:24.830Z,85.64
2019-01-04T21:21:31.395Z,86.34
2019-01-04T21:24:21.206Z,84.58
2019-01-04T21:27:07.767Z,85.60
2019-01-04T21:29:56.391Z,85.57
2019-01-04T21:32:57.176Z,85.69
2019-01-04T21:35:45.413Z,85.40
2019-01-04T21:38:34.151Z,85.29
2019-01-04T21:41:21.013Z,85.21
2019-01-04T21:44:18.801Z,85.30
2019-01-04T21:47:09.614Z,85.16
2019-01-04T21:50:05.853Z,85.27
2019-01-04T21:53:02.083Z,85.24
2019-01-04T21:56:03.350Z,85.68
2019-01-04T21:58:50.192Z,85.47
2019-01-04T22:01:36.986Z,85.37
2019-01-04T22:04:34.772Z,84.61
2019-01-04T22:07:31.554Z,85.50
2019-01-04T22:10:12.489Z,84.46
2019-01-04T22:13:09.550Z,85.03
2019-01-04T22:16:03.951Z,84.80
2019-01-04T22:18:57.671Z,84.56
2019-01-04T22:21:48.367Z,84.47
2019-01-04T22:24:34.840Z,84.33
2019-01-04T22:27:22.507Z,84.39
2019-01-04T22:30:16.306Z,84.74
2019-01-04T22:33:04.500Z,84.36
2019-01-04T22:36:01.583Z,85.01
2019-01-04T22:39:04.442Z,85.19
2019-01-04T22:42:10.570Z,84.88
2019-01-04T22:45:13.603Z,85.28
2019-01-04T22:48:00.375Z,85.03
2019-01-04T22:50:46.967Z,85.17
2019-01-04T22:53:33.249Z,85.56
2019-01-04T22:56:16.358Z,85.23
2019-01-04T22:59:00.110Z,85.44
2019-01-04T23:01:53.899Z,85.73
2019-01-04T23:04:48.536Z,85.76
2019-01-04T23:07:31.750Z,86.13
2019-01-04T23:10:18.610Z,85.87
2019-01-04T23:13:15.925Z,85.67
2019-01-04T23:16:06.540Z,85.85
2019-01-04T23:19:06.553Z,85.98
2019-01-04T23:22:36.180Z,85.85
2019-01-04T23:25:42.690Z,85.93
2019-01-04T23:28:28.814Z,86.00
2019-01-04T23:31:15.393Z,85.47
2019-01-04T23:34:03.522Z,85.16
2019-01-04T23:36:57.820Z,85.71
2019-01-04T23:39:45.895Z,85.58
2019-01-04T23:42:32.583Z,85.56
2019-01-04T23:45:19.108Z,85.13
2019-01-04T23:48:17.899Z,84.94
2019-01-04T23:51:04.433Z,84.87
2019-01-04T23:53:56.007Z,84.55
2019-01-04T23:56:57.256Z,84.73
2019-01-04T23:59:51.252Z,84.45
